sensor_id;sensor_type;location;lat;lon;timestamp;pressure;altitude;pressure_sealevel;temperature;humidity
6514;BME280;3290;47.716;9.070;2023-03-22T00:01:21;96821.41;;;12.38;89.22
6514;BME280;3290;47.716;9.070;2023-03-22T00:03:48;96822.31;;;12.21;90.09
6514;BME280;3290;47.716;9.070;2023-03-22T00:06:17;96823.78;;;12.17;91.51
6514;BME280;3290;47.716;9.070;2023-03-22T00:08:43;96819.94;;;12.20;90.87
6514;BME280;3290;47.716;9.070;2023-03-22T00:11:11;96820.72;;;12.20;91.56
6514;BME280;3290;47.716;9.070;2023-03-22T00:13:36;96820.38;;;12.17;90.91
6514;BME280;3290;47.716;9.070;2023-03-22T00:16:03;96821.97;;;12.18;91.36
6514;BME280;3290;47.716;9.070;2023-03-22T00:18:29;96817.28;;;11.97;92.70
6514;BME280;3290;47.716;9.070;2023-03-22T00:20:57;96811.88;;;11.92;92.63
6514;BME280;3290;47.716;9.070;2023-03-22T00:23:24;96811.19;;;11.85;93.15
6514;BME280;3290;47.716;9.070;2023-03-22T00:25:50;96817.38;;;12.02;92.64
6514;BME280;3290;47.716;9.070;2023-03-22T00:28:16;96808.69;;;11.90;92.12
6514;BME280;3290;47.716;9.070;2023-03-22T00:30:49;96806.25;;;11.77;92.36
6514;BME280;3290;47.716;9.070;2023-03-22T00:33:14;96805.25;;;11.90;91.69
6514;BME280;3290;47.716;9.070;2023-03-22T00:35:47;96803.94;;;11.69;92.80
6514;BME280;3290;47.716;9.070;2023-03-22T00:38:12;96801.47;;;11.74;92.67
6514;BME280;3290;47.716;9.070;2023-03-22T00:40:38;96798.13;;;11.67;93.63
6514;BME280;3290;47.716;9.070;2023-03-22T00:43:03;96803.16;;;11.69;94.02
6514;BME280;3290;47.716;9.070;2023-03-22T00:45:29;96791.47;;;11.54;94.06
6514;BME280;3290;47.716;9.070;2023-03-22T00:47:54;96798.34;;;11.66;93.18
6514;BME280;3290;47.716;9.070;2023-03-22T00:50:20;96796.16;;;11.63;93.60
6514;BME280;3290;47.716;9.070;2023-03-22T00:52:45;96794.47;;;11.68;93.55
6514;BME280;3290;47.716;9.070;2023-03-22T00:55:11;96803.47;;;11.61;93.37
6514;BME280;3290;47.716;9.070;2023-03-22T00:57:36;96798.44;;;11.59;92.90
6514;BME280;3290;47.716;9.070;2023-03-22T01:00:03;96799.47;;;11.59;94.24
6514;BME280;3290;47.716;9.070;2023-03-22T01:02:35;96798.97;;;11.50;93.77
6514;BME280;3290;47.716;9.070;2023-03-22T01:05:00;96795.03;;;11.41;95.07
6514;BME280;3290;47.716;9.070;2023-03-22T01:07:26;96793.81;;;11.26;95.97
6514;BME280;3290;47.716;9.070;2023-03-22T01:09:52;96787.28;;;11.17;96.12
6514;BME280;3290;47.716;9.070;2023-03-22T01:12:18;96791.66;;;11.05;96.41
6514;BME280;3290;47.716;9.070;2023-03-22T01:14:44;96784.53;;;11.12;96.17
6514;BME280;3290;47.716;9.070;2023-03-22T01:17:09;96776.03;;;11.28;95.98
6514;BME280;3290;47.716;9.070;2023-03-22T01:19:36;96778.13;;;11.08;96.63
6514;BME280;3290;47.716;9.070;2023-03-22T01:22:05;96774.22;;;10.81;97.86
6514;BME280;3290;47.716;9.070;2023-03-22T01:24:31;96769.84;;;10.76;98.78
6514;BME280;3290;47.716;9.070;2023-03-22T01:26:57;96765.84;;;10.73;99.48
6514;BME280;3290;47.716;9.070;2023-03-22T01:29:23;96771.16;;;10.67;100.00
6514;BME280;3290;47.716;9.070;2023-03-22T01:31:49;96778.84;;;10.62;100.00
6514;BME280;3290;47.716;9.070;2023-03-22T01:34:15;96776.38;;;10.67;100.00
6514;BME280;3290;47.716;9.070;2023-03-22T01:36:40;96775.50;;;10.37;100.00
6514;BME280;3290;47.716;9.070;2023-03-22T01:39:05;96771.41;;;10.41;100.00
6514;BME280;3290;47.716;9.070;2023-03-22T01:41:31;96766.19;;;10.41;100.00
6514;BME280;3290;47.716;9.070;2023-03-22T01:44:15;96767.94;;;10.29;100.00
6514;BME280;3290;47.716;9.070;2023-03-22T01:46:43;96774.97;;;10.29;100.00
6514;BME280;3290;47.716;9.070;2023-03-22T01:49:19;96775.81;;;10.47;100.00
6514;BME280;3290;47.716;9.070;2023-03-22T01:51:48;96767.84;;;10.36;100.00
6514;BME280;3290;47.716;9.070;2023-03-22T01:54:31;96765.31;;;10.29;100.00
6514;BME280;3290;47.716;9.070;2023-03-22T01:56:59;96765.91;;;10.31;100.00
6514;BME280;3290;47.716;9.070;2023-03-22T01:59:25;96764.56;;;10.22;100.00
6514;BME280;3290;47.716;9.070;2023-03-22T02:01:51;96766.88;;;10.12;100.00
6514;BME280;3290;47.716;9.070;2023-03-22T02:04:21;96763.13;;;10.02;100.00
6514;BME280;3290;47.716;9.070;2023-03-22T02:06:50;96765.97;;;10.00;100.00
6514;BME280;3290;47.716;9.070;2023-03-22T02:09:18;96772.28;;;9.93;100.00
6514;BME280;3290;47.716;9.070;2023-03-22T02:29:36;96754.25;;;9.79;100.00
6514;BME280;3290;47.716;9.070;2023-03-22T02:40:13;96741.91;;;9.86;100.00
6514;BME280;3290;47.716;9.070;2023-03-22T02:42:43;96742.69;;;9.62;100.00
6514;BME280;3290;47.716;9.070;2023-03-22T02:50:52;96743.50;;;9.32;100.00
6514;BME280;3290;47.716;9.070;2023-03-22T02:56:10;96743.31;;;9.33;100.00
6514;BME280;3290;47.716;9.070;2023-03-22T02:58:42;96744.91;;;9.34;100.00
6514;BME280;3290;47.716;9.070;2023-03-22T03:01:13;96743.72;;;9.30;100.00
6514;BME280;3290;47.716;9.070;2023-03-22T03:03:42;96752.63;;;9.23;100.00
6514;BME280;3290;47.716;9.070;2023-03-22T03:06:15;96750.22;;;9.52;100.00
6514;BME280;3290;47.716;9.070;2023-03-22T03:08:42;96755.63;;;9.20;100.00
6514;BME280;3290;47.716;9.070;2023-03-22T03:11:08;96754.34;;;9.05;100.00
6514;BME280;3290;47.716;9.070;2023-03-22T03:13:34;96749.53;;;9.02;100.00
6514;BME280;3290;47.716;9.070;2023-03-22T03:15:59;96746.34;;;8.87;100.00
6514;BME280;3290;47.716;9.070;2023-03-22T03:29:21;96751.72;;;9.05;100.00
6514;BME280;3290;47.716;9.070;2023-03-22T03:32:03;96752.56;;;8.92;100.00
6514;BME280;3290;47.716;9.070;2023-03-22T03:34:39;96754.97;;;8.94;100.00
6514;BME280;3290;47.716;9.070;2023-03-22T03:37:14;96750.41;;;8.77;100.00
6514;BME280;3290;47.716;9.070;2023-03-22T03:39:46;96757.28;;;8.71;100.00
6514;BME280;3290;47.716;9.070;2023-03-22T03:42:15;96757.66;;;8.81;100.00
6514;BME280;3290;47.716;9.070;2023-03-22T03:44:42;96762.50;;;8.71;100.00
6514;BME280;3290;47.716;9.070;2023-03-22T03:47:09;96764.91;;;8.79;100.00
6514;BME280;3290;47.716;9.070;2023-03-22T03:49:35;96761.22;;;8.93;100.00
6514;BME280;3290;47.716;9.070;2023-03-22T03:52:00;96761.25;;;8.80;100.00
6514;BME280;3290;47.716;9.070;2023-03-22T03:54:27;96761.25;;;8.80;100.00
6514;BME280;3290;47.716;9.070;2023-03-22T03:56:53;96767.56;;;8.66;100.00
6514;BME280;3290;47.716;9.070;2023-03-22T03:59:18;96759.72;;;8.66;100.00
6514;BME280;3290;47.716;9.070;2023-03-22T04:01:45;96757.28;;;8.71;100.00
6514;BME280;3290;47.716;9.070;2023-03-22T04:04:16;96757.72;;;8.68;100.00
6514;BME280;3290;47.716;9.070;2023-03-22T04:06:41;96762.94;;;8.68;100.00
6514;BME280;3290;47.716;9.070;2023-03-22T04:09:07;96760.47;;;8.73;100.00
6514;BME280;3290;47.716;9.070;2023-03-22T04:11:32;96767.78;;;8.52;100.00
6514;BME280;3290;47.716;9.070;2023-03-22T04:13:58;96765.41;;;8.38;100.00
6514;BME280;3290;47.716;9.070;2023-03-22T04:16:23;96766.22;;;8.44;100.00
6514;BME280;3290;47.716;9.070;2023-03-22T04:18:49;96773.06;;;8.39;100.00
6514;BME280;3290;47.716;9.070;2023-03-22T04:21:15;96773.09;;;8.13;100.00
6514;BME280;3290;47.716;9.070;2023-03-22T04:23:40;96773.09;;;8.07;100.00
6514;BME280;3290;47.716;9.070;2023-03-22T04:26:06;96771.06;;;8.09;100.00
6514;BME280;3290;47.716;9.070;2023-03-22T04:28:31;96771.50;;;8.12;100.00
6514;BME280;3290;47.716;9.070;2023-03-22T04:30:57;96768.69;;;8.14;100.00
6514;BME280;3290;47.716;9.070;2023-03-22T04:33:24;96778.69;;;8.23;100.00
6514;BME280;3290;47.716;9.070;2023-03-22T04:35:50;96780.28;;;8.31;100.00
6514;BME280;3290;47.716;9.070;2023-03-22T04:38:21;96773.03;;;8.45;100.00
6514;BME280;3290;47.716;9.070;2023-03-22T04:40:46;96777.28;;;8.40;100.00
6514;BME280;3290;47.716;9.070;2023-03-22T04:43:12;96773.47;;;8.17;100.00
6514;BME280;3290;47.716;9.070;2023-03-22T04:45:38;96764.22;;;8.34;100.00
6514;BME280;3290;47.716;9.070;2023-03-22T04:48:04;96778.50;;;8.25;100.00
6514;BME280;3290;47.716;9.070;2023-03-22T04:50:31;96770.69;;;8.25;100.00
6514;BME280;3290;47.716;9.070;2023-03-22T04:52:57;96771.31;;;8.14;100.00
6514;BME280;3290;47.716;9.070;2023-03-22T04:55:22;96775.28;;;8.03;100.00
6514;BME280;3290;47.716;9.070;2023-03-22T04:57:48;96770.66;;;8.12;100.00
6514;BME280;3290;47.716;9.070;2023-03-22T05:00:13;96775.50;;;8.28;100.00
6514;BME280;3290;47.716;9.070;2023-03-22T05:02:39;96777.91;;;8.23;100.00
6514;BME280;3290;47.716;9.070;2023-03-22T05:05:05;96775.28;;;7.78;100.00
6514;BME280;3290;47.716;9.070;2023-03-22T05:07:31;96781.88;;;7.61;100.00
6514;BME280;3290;47.716;9.070;2023-03-22T05:09:56;96781.06;;;7.54;100.00
6514;BME280;3290;47.716;9.070;2023-03-22T05:12:21;96776.47;;;7.82;100.00
6514;BME280;3290;47.716;9.070;2023-03-22T05:14:47;96777.91;;;7.84;100.00
6514;BME280;3290;47.716;9.070;2023-03-22T05:17:12;96779.50;;;7.98;100.00
6514;BME280;3290;47.716;9.070;2023-03-22T05:19:37;96778.69;;;8.04;100.00
6514;BME280;3290;47.716;9.070;2023-03-22T05:22:03;96773.88;;;8.01;100.00
6514;BME280;3290;47.716;9.070;2023-03-22T05:24:29;96775.91;;;7.86;100.00
6514;BME280;3290;47.716;9.070;2023-03-22T05:26:55;96778.91;;;7.83;100.00
6514;BME280;3290;47.716;9.070;2023-03-22T05:29:20;96774.28;;;7.98;100.00
6514;BME280;3290;47.716;9.070;2023-03-22T05:31:47;96787.72;;;7.95;100.00
6514;BME280;3290;47.716;9.070;2023-03-22T05:34:12;96779.91;;;7.95;100.00
6514;BME280;3290;47.716;9.070;2023-03-22T05:36:38;96786.50;;;7.78;100.00
6514;BME280;3290;47.716;9.070;2023-03-22T05:39:03;96780.50;;;7.71;100.00
6514;BME280;3290;47.716;9.070;2023-03-22T05:41:29;96782.09;;;7.53;100.00
6514;BME280;3290;47.716;9.070;2023-03-22T05:43:58;96782.72;;;7.74;100.00
6514;BME280;3290;47.716;9.070;2023-03-22T05:46:23;96786.72;;;7.83;100.00
6514;BME280;3290;47.716;9.070;2023-03-22T05:48:48;96780.31;;;7.86;100.00
6514;BME280;3290;47.716;9.070;2023-03-22T05:51:14;96775.91;;;8.12;100.00
6514;BME280;3290;47.716;9.070;2023-03-22T05:53:44;96786.34;;;8.25;100.00
6514;BME280;3290;47.716;9.070;2023-03-22T05:56:10;96789.53;;;8.33;100.00
6514;BME280;3290;47.716;9.070;2023-03-22T05:58:36;96785.91;;;8.40;100.00
6514;BME280;3290;47.716;9.070;2023-03-22T06:01:06;96786.50;;;8.42;100.00
6514;BME280;3290;47.716;9.070;2023-03-22T06:03:32;96790.22;;;8.72;100.00
6514;BME280;3290;47.716;9.070;2023-03-22T06:05:57;96788.94;;;8.94;100.00
6514;BME280;3290;47.716;9.070;2023-03-22T06:08:23;96783.28;;;9.03;100.00
6514;BME280;3290;47.716;9.070;2023-03-22T06:10:49;96786.50;;;8.99;100.00
6514;BME280;3290;47.716;9.070;2023-03-22T06:13:16;96788.94;;;8.94;100.00
6514;BME280;3290;47.716;9.070;2023-03-22T06:15:42;96788.06;;;9.13;100.00
6514;BME280;3290;47.716;9.070;2023-03-22T06:18:07;96792.03;;;9.21;100.00
6514;BME280;3290;47.716;9.070;2023-03-22T06:20:34;96789.47;;;9.52;100.00
6514;BME280;3290;47.716;9.070;2023-03-22T06:22:59;96782.09;;;9.98;100.00
6514;BME280;3290;47.716;9.070;2023-03-22T06:25:25;96780.06;;;10.24;100.00
6514;BME280;3290;47.716;9.070;2023-03-22T06:27:51;96775.47;;;10.19;98.18
6514;BME280;3290;47.716;9.070;2023-03-22T06:30:16;96780.69;;;10.43;97.02
6514;BME280;3290;47.716;9.070;2023-03-22T06:32:42;96773.91;;;10.72;96.70
6514;BME280;3290;47.716;9.070;2023-03-22T06:35:07;96787.31;;;10.99;93.51
6514;BME280;3290;47.716;9.070;2023-03-22T06:37:33;96779.94;;;11.37;94.64
6514;BME280;3290;47.716;9.070;2023-03-22T06:39:58;96783.91;;;11.28;91.44
6514;BME280;3290;47.716;9.070;2023-03-22T06:42:24;96777.31;;;11.37;92.42
6514;BME280;3290;47.716;9.070;2023-03-22T06:44:50;96781.41;;;11.51;91.37
6514;BME280;3290;47.716;9.070;2023-03-22T06:47:15;96782.03;;;11.75;88.31
6514;BME280;3290;47.716;9.070;2023-03-22T06:49:40;96785.84;;;11.91;88.46
6514;BME280;3290;47.716;9.070;2023-03-22T06:52:06;96786.56;;;12.09;87.70
6514;BME280;3290;47.716;9.070;2023-03-22T06:54:31;96789.53;;;12.01;88.03
6514;BME280;3290;47.716;9.070;2023-03-22T06:56:57;96786.69;;;12.37;85.58
6514;BME280;3290;47.716;9.070;2023-03-22T06:59:22;96796.41;;;12.36;86.24
6514;BME280;3290;47.716;9.070;2023-03-22T07:01:47;96780.28;;;12.78;84.89
6514;BME280;3290;47.716;9.070;2023-03-22T07:04:13;96787.31;;;13.23;81.63
6514;BME280;3290;47.716;9.070;2023-03-22T07:06:39;96792.41;;;13.29;80.79
6514;BME280;3290;47.716;9.070;2023-03-22T07:09:04;96787.31;;;13.23;81.79
6514;BME280;3290;47.716;9.070;2023-03-22T07:11:29;96787.63;;;13.26;82.27
6514;BME280;3290;47.716;9.070;2023-03-22T07:13:55;96790.28;;;13.26;82.34
6514;BME280;3290;47.716;9.070;2023-03-22T07:16:20;96785.69;;;13.77;79.55
6514;BME280;3290;47.716;9.070;2023-03-22T07:18:46;96789.78;;;13.57;78.71
6514;BME280;3290;47.716;9.070;2023-03-22T07:21:12;96777.78;;;14.21;75.86
6514;BME280;3290;47.716;9.070;2023-03-22T07:23:38;96793.19;;;14.01;76.28
6514;BME280;3290;47.716;9.070;2023-03-22T07:26:03;96793.41;;;14.44;74.92
6514;BME280;3290;47.716;9.070;2023-03-22T07:28:29;96788.53;;;14.36;75.38
6514;BME280;3290;47.716;9.070;2023-03-22T07:31:06;96786.00;;;14.79;73.75
6514;BME280;3290;47.716;9.070;2023-03-22T07:33:34;96787.97;;;14.67;74.11
6514;BME280;3290;47.716;9.070;2023-03-22T07:35:59;96788.19;;;14.65;72.90
6514;BME280;3290;47.716;9.070;2023-03-22T07:38:25;96782.28;;;14.96;72.84
6514;BME280;3290;47.716;9.070;2023-03-22T07:40:51;96777.91;;;14.85;72.03
6514;BME280;3290;47.716;9.070;2023-03-22T07:43:19;96776.59;;;15.25;70.39
6514;BME280;3290;47.716;9.070;2023-03-22T07:45:45;96776.25;;;15.64;66.78
6514;BME280;3290;47.716;9.070;2023-03-22T07:48:12;96770.13;;;15.59;67.90
6514;BME280;3290;47.716;9.070;2023-03-22T07:50:37;96770.34;;;15.83;68.01
6514;BME280;3290;47.716;9.070;2023-03-22T07:53:03;96770.78;;;15.70;64.71
6514;BME280;3290;47.716;9.070;2023-03-22T07:55:28;96765.63;;;16.16;64.44
6514;BME280;3290;47.716;9.070;2023-03-22T07:57:53;96773.94;;;15.99;66.50
6514;BME280;3290;47.716;9.070;2023-03-22T08:00:20;96765.06;;;15.83;64.70
6514;BME280;3290;47.716;9.070;2023-03-22T08:02:46;96758.25;;;16.18;62.47
6514;BME280;3290;47.716;9.070;2023-03-22T08:05:12;96759.50;;;16.11;65.37
6514;BME280;3290;47.716;9.070;2023-03-22T08:07:37;96766.94;;;16.86;64.16
6514;BME280;3290;47.716;9.070;2023-03-22T08:10:03;96766.66;;;16.10;62.30
6514;BME280;3290;47.716;9.070;2023-03-22T08:12:28;96766.91;;;16.40;61.72
6514;BME280;3290;47.716;9.070;2023-03-22T08:14:55;96769.06;;;16.48;58.97
6514;BME280;3290;47.716;9.070;2023-03-22T08:17:20;96765.47;;;17.10;58.04
6514;BME280;3290;47.716;9.070;2023-03-22T08:19:46;96756.72;;;17.09;58.66
6514;BME280;3290;47.716;9.070;2023-03-22T08:22:12;96761.22;;;17.09;57.04
6514;BME280;3290;47.716;9.070;2023-03-22T08:24:37;96753.47;;;17.48;58.67
6514;BME280;3290;47.716;9.070;2023-03-22T08:27:03;96767.25;;;16.48;59.70
6514;BME280;3290;47.716;9.070;2023-03-22T08:29:29;96751.06;;;17.42;57.24
6514;BME280;3290;47.716;9.070;2023-03-22T08:31:54;96755.63;;;17.66;55.97
6514;BME280;3290;47.716;9.070;2023-03-22T08:34:20;96759.38;;;17.09;55.78
6514;BME280;3290;47.716;9.070;2023-03-22T08:36:46;96758.69;;;16.78;56.70
6514;BME280;3290;47.716;9.070;2023-03-22T08:39:11;96752.38;;;16.88;56.55
6514;BME280;3290;47.716;9.070;2023-03-22T08:41:38;96753.78;;;17.76;55.13
6514;BME280;3290;47.716;9.070;2023-03-22T08:44:03;96762.00;;;17.70;53.26
6514;BME280;3290;47.716;9.070;2023-03-22T08:46:28;96762.56;;;18.56;52.31
6514;BME280;3290;47.716;9.070;2023-03-22T08:48:54;96767.91;;;18.11;53.44
6514;BME280;3290;47.716;9.070;2023-03-22T08:51:21;96770.56;;;18.31;51.61
6514;BME280;3290;47.716;9.070;2023-03-22T08:53:47;96776.88;;;18.75;50.67
6514;BME280;3290;47.716;9.070;2023-03-22T08:56:13;96776.16;;;18.20;52.27
6514;BME280;3290;47.716;9.070;2023-03-22T08:58:45;96772.06;;;19.06;51.26
6514;BME280;3290;47.716;9.070;2023-03-22T09:01:15;96779.66;;;19.32;49.33
6514;BME280;3290;47.716;9.070;2023-03-22T09:03:41;96770.69;;;19.14;49.34
6514;BME280;3290;47.716;9.070;2023-03-22T09:06:08;96773.59;;;19.22;49.94
6514;BME280;3290;47.716;9.070;2023-03-22T09:08:34;96764.13;;;19.59;49.20
6514;BME280;3290;47.716;9.070;2023-03-22T09:10:59;96767.13;;;19.43;49.08
6514;BME280;3290;47.716;9.070;2023-03-22T09:13:25;96754.13;;;19.89;47.46
6514;BME280;3290;47.716;9.070;2023-03-22T09:15:51;96756.00;;;20.27;46.27
6514;BME280;3290;47.716;9.070;2023-03-22T09:18:17;96766.56;;;19.51;49.00
6514;BME280;3290;47.716;9.070;2023-03-22T09:20:43;96763.06;;;19.60;47.56
6514;BME280;3290;47.716;9.070;2023-03-22T09:23:10;96763.06;;;19.60;47.44
6514;BME280;3290;47.716;9.070;2023-03-22T09:25:35;96766.41;;;19.85;47.63
6514;BME280;3290;47.716;9.070;2023-03-22T09:28:01;96760.88;;;20.15;46.44
6514;BME280;3290;47.716;9.070;2023-03-22T09:30:28;96762.38;;;19.88;46.01
6514;BME280;3290;47.716;9.070;2023-03-22T09:32:53;96756.09;;;20.12;46.19
6514;BME280;3290;47.716;9.070;2023-03-22T09:35:19;96759.97;;;19.91;48.16
6514;BME280;3290;47.716;9.070;2023-03-22T09:37:44;96755.53;;;20.15;47.49
6514;BME280;3290;47.716;9.070;2023-03-22T09:40:10;96751.94;;;19.96;48.39
6514;BME280;3290;47.716;9.070;2023-03-22T09:42:41;96748.00;;;19.94;47.70
6514;BME280;3290;47.716;9.070;2023-03-22T09:45:13;96741.22;;;20.72;45.88
6514;BME280;3290;47.716;9.070;2023-03-22T09:47:44;96737.38;;;19.89;46.51
6514;BME280;3290;47.716;9.070;2023-03-22T09:50:22;96733.28;;;20.67;46.35
6514;BME280;3290;47.716;9.070;2023-03-22T09:52:49;96737.56;;;20.35;47.46
6514;BME280;3290;47.716;9.070;2023-03-22T09:58:17;96728.81;;;21.09;44.92
6514;BME280;3290;47.716;9.070;2023-03-22T10:00:54;96720.63;;;22.02;42.52
6514;BME280;3290;47.716;9.070;2023-03-22T10:08:46;96717.19;;;21.24;42.83
6514;BME280;3290;47.716;9.070;2023-03-22T10:11:25;96717.41;;;20.24;46.36
6514;BME280;3290;47.716;9.070;2023-03-22T10:14:01;96709.03;;;21.75;44.09
6514;BME280;3290;47.716;9.070;2023-03-22T10:16:31;96709.88;;;21.89;42.37
6514;BME280;3290;47.716;9.070;2023-03-22T10:19:04;96710.63;;;21.58;43.33
6514;BME280;3290;47.716;9.070;2023-03-22T10:21:32;96714.59;;;20.95;43.42
6514;BME280;3290;47.716;9.070;2023-03-22T10:24:21;96697.31;;;21.34;42.82
6514;BME280;3290;47.716;9.070;2023-03-22T10:26:48;96694.31;;;21.59;42.14
6514;BME280;3290;47.716;9.070;2023-03-22T10:29:38;96695.09;;;22.46;40.82
6514;BME280;3290;47.716;9.070;2023-03-22T10:32:41;96694.91;;;22.56;38.36
6514;BME280;3290;47.716;9.070;2023-03-22T10:35:13;96684.91;;;22.16;39.49
6514;BME280;3290;47.716;9.070;2023-03-22T10:37:40;96684.47;;;22.28;38.53
6514;BME280;3290;47.716;9.070;2023-03-22T10:40:14;96681.13;;;21.86;40.95
6514;BME280;3290;47.716;9.070;2023-03-22T10:42:41;96674.34;;;21.38;39.72
6514;BME280;3290;47.716;9.070;2023-03-22T10:45:14;96675.88;;;23.16;38.55
6514;BME280;3290;47.716;9.070;2023-03-22T10:47:56;96668.38;;;24.10;35.36
6514;BME280;3290;47.716;9.070;2023-03-22T10:50:28;96660.09;;;23.28;35.50
6514;BME280;3290;47.716;9.070;2023-03-22T10:53:20;96660.28;;;23.79;36.33
6514;BME280;3290;47.716;9.070;2023-03-22T10:55:42;96660.31;;;22.64;37.58
6514;BME280;3290;47.716;9.070;2023-03-22T11:01:07;96654.09;;;23.92;36.49
6514;BME280;3290;47.716;9.070;2023-03-22T11:03:40;96650.63;;;23.08;36.88
6514;BME280;3290;47.716;9.070;2023-03-22T11:06:10;96646.25;;;23.26;37.04
6514;BME280;3290;47.716;9.070;2023-03-22T11:08:40;96659.19;;;22.52;38.46
6514;BME280;3290;47.716;9.070;2023-03-22T11:11:12;96645.81;;;22.52;38.22
6514;BME280;3290;47.716;9.070;2023-03-22T11:13:40;96642.31;;;22.70;39.11
6514;BME280;3290;47.716;9.070;2023-03-22T11:16:05;96649.97;;;22.00;38.33
6514;BME280;3290;47.716;9.070;2023-03-22T11:18:33;96637.13;;;22.33;39.26
6514;BME280;3290;47.716;9.070;2023-03-22T11:21:04;96637.38;;;22.90;37.77
6514;BME280;3290;47.716;9.070;2023-03-22T11:23:34;96629.72;;;22.12;39.28
6514;BME280;3290;47.716;9.070;2023-03-22T11:26:09;96623.09;;;23.08;38.31
6514;BME280;3290;47.716;9.070;2023-03-22T11:28:41;96623.72;;;22.92;38.39
6514;BME280;3290;47.716;9.070;2023-03-22T11:31:12;96624.03;;;23.73;36.43
6514;BME280;3290;47.716;9.070;2023-03-22T11:34:10;96626.84;;;22.53;38.18
6514;BME280;3290;47.716;9.070;2023-03-22T11:36:30;96626.66;;;22.77;38.99
6514;BME280;3290;47.716;9.070;2023-03-22T11:39:02;96619.28;;;21.84;39.22
6514;BME280;3290;47.716;9.070;2023-03-22T11:41:35;96610.19;;;23.10;37.66
6514;BME280;3290;47.716;9.070;2023-03-22T11:44:03;96608.06;;;22.98;37.69
6514;BME280;3290;47.716;9.070;2023-03-22T11:46:30;96610.91;;;22.62;38.10
6514;BME280;3290;47.716;9.070;2023-03-22T11:48:59;96596.94;;;22.78;36.27
6514;BME280;3290;47.716;9.070;2023-03-22T11:51:31;96610.13;;;22.48;36.23
6514;BME280;3290;47.716;9.070;2023-03-22T11:54:33;96602.06;;;23.50;35.52
6514;BME280;3290;47.716;9.070;2023-03-22T11:56:59;96605.94;;;23.22;35.81
6514;BME280;3290;47.716;9.070;2023-03-22T11:59:37;96598.28;;;23.86;33.84
6514;BME280;3290;47.716;9.070;2023-03-22T12:02:28;96592.47;;;24.36;34.63
6514;BME280;3290;47.716;9.070;2023-03-22T12:05:11;96589.19;;;23.30;35.73
6514;BME280;3290;47.716;9.070;2023-03-22T12:07:40;96591.34;;;22.93;35.18
6514;BME280;3290;47.716;9.070;2023-03-22T12:10:29;96587.22;;;22.15;36.82
6514;BME280;3290;47.716;9.070;2023-03-22T12:13:01;96584.59;;;22.42;35.62
6514;BME280;3290;47.716;9.070;2023-03-22T12:15:32;96581.63;;;22.70;35.15
6514;BME280;3290;47.716;9.070;2023-03-22T12:20:42;96560.13;;;23.15;33.94
6514;BME280;3290;47.716;9.070;2023-03-22T12:23:17;96560.56;;;22.69;34.18
6514;BME280;3290;47.716;9.070;2023-03-22T12:25:49;96559.16;;;23.55;34.18
6514;BME280;3290;47.716;9.070;2023-03-22T12:28:20;96557.50;;;23.80;34.55
6514;BME280;3290;47.716;9.070;2023-03-22T12:30:50;96554.06;;;23.45;33.72
6514;BME280;3290;47.716;9.070;2023-03-22T12:33:25;96546.38;;;23.30;32.93
6514;BME280;3290;47.716;9.070;2023-03-22T12:35:58;96547.16;;;23.31;33.39
6514;BME280;3290;47.716;9.070;2023-03-22T12:41:03;96542.41;;;23.63;32.53
6514;BME280;3290;47.716;9.070;2023-03-22T12:44:13;96541.94;;;23.61;32.58
6514;BME280;3290;47.716;9.070;2023-03-22T12:46:44;96536.47;;;23.31;33.03
6514;BME280;3290;47.716;9.070;2023-03-22T12:49:27;96529.09;;;22.92;34.27
6514;BME280;3290;47.716;9.070;2023-03-22T12:52:09;96532.34;;;22.90;34.79
6514;BME280;3290;47.716;9.070;2023-03-22T12:54:38;96527.94;;;23.85;34.83
6514;BME280;3290;47.716;9.070;2023-03-22T12:57:05;96520.09;;;23.97;34.11
6514;BME280;3290;47.716;9.070;2023-03-22T12:59:31;96523.06;;;23.44;33.33
6514;BME280;3290;47.716;9.070;2023-03-22T13:02:27;96515.41;;;22.94;34.32
6514;BME280;3290;47.716;9.070;2023-03-22T13:04:57;96517.53;;;23.19;34.69
6514;BME280;3290;47.716;9.070;2023-03-22T13:09:53;96514.88;;;23.05;34.03
6514;BME280;3290;47.716;9.070;2023-03-22T13:15:31;96506.34;;;22.55;34.43
6514;BME280;3290;47.716;9.070;2023-03-22T13:17:57;96510.78;;;22.73;33.61
6514;BME280;3290;47.716;9.070;2023-03-22T13:20:24;96502.56;;;23.39;33.47
6514;BME280;3290;47.716;9.070;2023-03-22T13:27:55;96502.13;;;23.02;32.13
6514;BME280;3290;47.716;9.070;2023-03-22T13:35:48;96491.78;;;22.74;32.90
6514;BME280;3290;47.716;9.070;2023-03-22T13:38:24;96485.84;;;23.12;32.38
6514;BME280;3290;47.716;9.070;2023-03-22T13:43:27;96486.78;;;23.73;31.33
6514;BME280;3290;47.716;9.070;2023-03-22T13:46:10;96484.94;;;23.38;31.37
6514;BME280;3290;47.716;9.070;2023-03-22T13:48:54;96484.41;;;23.28;31.85
6514;BME280;3290;47.716;9.070;2023-03-22T13:59:30;96472.00;;;23.54;32.06
6514;BME280;3290;47.716;9.070;2023-03-22T14:02:14;96473.06;;;23.74;32.45
6514;BME280;3290;47.716;9.070;2023-03-22T14:04:49;96464.56;;;24.11;30.21
6514;BME280;3290;47.716;9.070;2023-03-22T14:09:50;96460.94;;;23.25;30.56
6514;BME280;3290;47.716;9.070;2023-03-22T14:12:21;96458.38;;;23.64;30.35
6514;BME280;3290;47.716;9.070;2023-03-22T14:14:56;96459.28;;;23.89;30.26
6514;BME280;3290;47.716;9.070;2023-03-22T14:17:51;96443.44;;;24.01;31.16
6514;BME280;3290;47.716;9.070;2023-03-22T14:20:22;96441.78;;;23.32;32.00
6514;BME280;3290;47.716;9.070;2023-03-22T14:23:01;96441.97;;;23.35;30.91
6514;BME280;3290;47.716;9.070;2023-03-22T14:25:29;96444.44;;;23.53;31.30
6514;BME280;3290;47.716;9.070;2023-03-22T14:27:56;96434.59;;;23.92;30.60
6514;BME280;3290;47.716;9.070;2023-03-22T14:30:27;96434.69;;;23.05;32.52
6514;BME280;3290;47.716;9.070;2023-03-22T14:32:55;96433.44;;;23.03;32.88
6514;BME280;3290;47.716;9.070;2023-03-22T14:35:31;96426.88;;;23.39;33.34
6514;BME280;3290;47.716;9.070;2023-03-22T14:38:00;96427.22;;;23.16;33.50
6514;BME280;3290;47.716;9.070;2023-03-22T14:40:30;96419.16;;;22.37;35.17
6514;BME280;3290;47.716;9.070;2023-03-22T14:43:15;96418.59;;;22.62;33.84
6514;BME280;3290;47.716;9.070;2023-03-22T14:45:41;96418.88;;;22.12;33.75
6514;BME280;3290;47.716;9.070;2023-03-22T14:48:17;96423.47;;;22.82;34.84
6514;BME280;3290;47.716;9.070;2023-03-22T14:50:46;96414.75;;;23.11;34.27
6514;BME280;3290;47.716;9.070;2023-03-22T14:53:13;96411.09;;;23.89;31.87
6514;BME280;3290;47.716;9.070;2023-03-22T14:55:40;96411.94;;;23.60;31.97
6514;BME280;3290;47.716;9.070;2023-03-22T14:58:07;96417.66;;;23.23;32.36
6514;BME280;3290;47.716;9.070;2023-03-22T15:00:37;96407.94;;;23.27;31.53
6514;BME280;3290;47.716;9.070;2023-03-22T15:03:07;96406.72;;;23.33;31.63